createdAt,value
2023-04-23T00:01:45.370Z,17.65
2023-04-23T00:04:12.257Z,17.45
2023-04-23T00:06:39.880Z,18.38
2023-04-23T00:09:07.244Z,17.65
2023-04-23T00:11:34.154Z,16.80
2023-04-23T00:14:00.984Z,17.17
2023-04-23T00:16:27.908Z,18.65
2023-04-23T00:18:54.470Z,18.17
2023-04-23T00:21:21.270Z,19.30
2023-04-23T00:23:47.851Z,18.45
2023-04-23T00:26:14.389Z,18.10
2023-04-23T00:28:40.888Z,19.70
2023-04-23T00:31:07.604Z,19.00
2023-04-23T00:33:34.211Z,18.73
2023-04-23T00:36:01.118Z,18.85
2023-04-23T00:38:27.776Z,19.10
2023-04-23T00:40:54.660Z,18.65
2023-04-23T00:43:21.418Z,19.27
2023-04-23T00:45:48.329Z,21.55
2023-04-23T00:48:16.340Z,19.42
2023-04-23T00:50:43.221Z,19.83
2023-04-23T00:53:09.893Z,20.60
2023-04-23T00:55:36.718Z,19.60
2023-04-23T00:58:03.898Z,20.50
2023-04-23T01:00:30.615Z,20.70
2023-04-23T01:05:25.782Z,20.33
2023-04-23T01:07:52.570Z,20.13
2023-04-23T01:10:19.366Z,19.40
2023-04-23T01:12:48.327Z,20.75
2023-04-23T01:15:15.006Z,20.23
2023-04-23T01:17:43.158Z,19.85
2023-04-23T01:20:10.276Z,19.98
2023-04-23T01:22:37.830Z,20.58
2023-04-23T01:25:05.637Z,20.65
2023-04-23T01:27:33.165Z,22.20
2023-04-23T01:30:03.587Z,22.27
2023-04-23T01:32:31.639Z,20.35
2023-04-23T01:34:58.601Z,20.95
2023-04-23T01:37:26.175Z,20.30
2023-04-23T01:39:53.047Z,22.02
2023-04-23T01:42:19.779Z,20.70
2023-04-23T01:44:46.560Z,20.80
2023-04-23T01:47:13.585Z,20.63
2023-04-23T01:49:40.639Z,18.63
2023-04-23T01:52:07.440Z,21.95
2023-04-23T01:54:34.026Z,20.92
2023-04-23T01:57:00.854Z,20.35
2023-04-23T01:59:27.418Z,21.02
2023-04-23T02:01:54.073Z,19.08
2023-04-23T02:04:20.911Z,21.33
2023-04-23T02:06:49.878Z,22.38
2023-04-23T02:09:16.612Z,20.33
2023-04-23T02:11:43.255Z,21.30
2023-04-23T02:14:10.402Z,21.77
2023-04-23T02:16:37.467Z,20.85
2023-04-23T02:19:04.387Z,21.15
2023-04-23T02:21:31.595Z,20.17
2023-04-23T02:23:58.191Z,21.70
2023-04-23T02:26:25.037Z,21.48
2023-04-23T02:28:51.848Z,21.75
2023-04-23T02:31:20.492Z,20.35
2023-04-23T02:33:47.319Z,19.75
2023-04-23T02:36:14.023Z,21.02
2023-04-23T02:38:42.326Z,19.50
2023-04-23T02:41:09.196Z,22.33
2023-04-23T02:43:35.835Z,21.60
2023-04-23T02:46:08.528Z,20.95
2023-04-23T02:48:41.436Z,16.17
2023-04-23T02:51:11.253Z,18.05
2023-04-23T02:53:37.941Z,17.63
2023-04-23T02:56:04.663Z,19.20
2023-04-23T02:58:31.853Z,20.15
2023-04-23T03:01:00.999Z,21.92
2023-04-23T03:03:31.851Z,20.10
2023-04-23T03:06:01.484Z,20.25
2023-04-23T03:08:28.403Z,21.42
2023-04-23T03:10:55.207Z,20.77
2023-04-23T03:13:21.897Z,20.10
2023-04-23T03:15:49.598Z,19.67
2023-04-23T03:18:16.299Z,17.73
2023-04-23T03:20:44.701Z,19.40
2023-04-23T03:23:11.347Z,19.02
2023-04-23T03:25:37.918Z,17.20
2023-04-23T03:28:05.083Z,19.02
2023-04-23T03:30:31.949Z,17.73
2023-04-23T03:32:59.077Z,19.25
2023-04-23T03:35:26.335Z,17.88
2023-04-23T03:37:55.096Z,19.45
2023-04-23T03:40:23.176Z,16.23
2023-04-23T03:42:53.041Z,17.30
2023-04-23T03:45:26.559Z,18.17
2023-04-23T03:47:53.172Z,16.42
2023-04-23T03:50:19.852Z,17.27
2023-04-23T03:52:55.533Z,16.48
2023-04-23T03:55:42.037Z,16.95
2023-04-23T03:58:09.151Z,16.33
2023-04-23T04:00:42.931Z,15.90
2023-04-23T04:03:09.828Z,16.33
2023-04-23T04:05:36.596Z,16.20
2023-04-23T04:08:04.922Z,15.43
2023-04-23T04:10:31.489Z,17.52
2023-04-23T04:12:58.026Z,15.82
2023-04-23T04:15:24.791Z,15.63
2023-04-23T04:17:51.380Z,16.42
2023-04-23T04:20:18.043Z,15.27
2023-04-23T04:22:44.610Z,13.93
2023-04-23T04:25:12.153Z,15.07
2023-04-23T04:27:39.052Z,14.45
2023-04-23T04:30:06.692Z,14.73
2023-04-23T04:32:33.259Z,14.30
2023-04-23T04:34:59.924Z,14.35
2023-04-23T04:37:26.457Z,15.02
2023-04-23T04:39:54.426Z,15.52
2023-04-23T04:42:21.043Z,13.43
2023-04-23T04:44:47.705Z,13.80
2023-04-23T04:47:16.186Z,15.20
2023-04-23T04:49:42.776Z,14.45
2023-04-23T04:52:09.298Z,14.00
2023-04-23T04:54:35.937Z,13.02
2023-04-23T04:57:02.524Z,14.95
2023-04-23T04:59:29.153Z,14.75
2023-04-23T05:01:56.538Z,14.88
2023-04-23T05:04:23.190Z,14.40
2023-04-23T05:06:49.716Z,14.35
2023-04-23T05:09:17.092Z,13.50
2023-04-23T05:11:43.710Z,14.13
2023-04-23T05:14:10.710Z,14.18
2023-04-23T05:16:37.418Z,12.85
2023-04-23T05:19:04.008Z,13.82
2023-04-23T05:21:31.515Z,12.50
2023-04-23T05:23:58.137Z,12.40
2023-04-23T05:26:24.659Z,13.15
2023-04-23T05:28:51.248Z,11.90
2023-04-23T05:31:17.940Z,12.07
2023-04-23T05:33:50.484Z,12.32
2023-04-23T05:36:18.089Z,13.27
2023-04-23T05:38:44.880Z,11.75
2023-04-23T05:41:11.570Z,12.27
2023-04-23T05:43:38.118Z,12.35
2023-04-23T05:46:07.010Z,12.20
2023-04-23T05:48:34.031Z,11.93
2023-04-23T05:51:00.879Z,12.05
2023-04-23T05:53:28.090Z,11.88
2023-04-23T05:55:54.683Z,11.88
2023-04-23T05:58:21.261Z,11.55
2023-04-23T06:00:47.933Z,10.40
2023-04-23T06:03:14.804Z,10.77
2023-04-23T06:05:43.222Z,11.15
2023-04-23T06:08:09.842Z,9.50
2023-04-23T06:10:36.466Z,10.52
2023-04-23T06:13:03.123Z,9.13
2023-04-23T06:15:29.684Z,9.73
2023-04-23T06:17:56.412Z,9.18
2023-04-23T06:20:23.072Z,9.80
2023-04-23T06:22:49.609Z,10.15
2023-04-23T06:25:16.259Z,8.70
2023-04-23T06:27:42.899Z,9.18
2023-04-23T06:30:16.768Z,8.65
2023-04-23T06:32:44.375Z,9.00
2023-04-23T06:35:11.108Z,8.70
2023-04-23T06:37:37.685Z,8.75
2023-04-23T06:40:04.630Z,9.32
2023-04-23T06:42:31.182Z,8.75
2023-04-23T06:45:16.813Z,8.60
2023-04-23T06:47:43.375Z,8.10
2023-04-23T06:50:10.089Z,7.95
2023-04-23T06:52:36.737Z,8.52
2023-04-23T06:55:03.653Z,7.75
2023-04-23T06:57:30.201Z,7.85
2023-04-23T06:59:56.868Z,7.40
2023-04-23T07:02:27.609Z,7.60
2023-04-23T07:04:54.151Z,7.47
2023-04-23T07:07:20.759Z,6.72
2023-04-23T07:09:47.338Z,7.50
2023-04-23T07:12:13.886Z,7.30
2023-04-23T07:14:40.720Z,6.82
2023-04-23T07:17:07.574Z,7.25
2023-04-23T07:19:34.192Z,6.97
2023-04-23T07:22:00.820Z,6.60
2023-04-23T07:24:27.417Z,6.80
2023-04-23T07:26:54.241Z,7.10
2023-04-23T07:29:21.488Z,6.93
2023-04-23T07:31:48.271Z,5.78
2023-04-23T07:34:14.900Z,6.18
2023-04-23T07:36:41.510Z,5.70
2023-04-23T07:39:08.041Z,5.60
2023-04-23T07:41:35.256Z,5.18
2023-04-23T07:44:01.944Z,5.57
2023-04-23T07:46:28.740Z,5.70
2023-04-23T07:48:55.610Z,5.93
2023-04-23T07:51:22.663Z,5.75
2023-04-23T07:53:51.145Z,5.05
2023-04-23T07:56:17.780Z,5.13
2023-04-23T07:58:44.284Z,4.82
2023-04-23T08:01:10.899Z,4.95
2023-04-23T08:03:37.700Z,4.93
2023-04-23T08:06:04.797Z,4.25
2023-04-23T08:08:31.372Z,4.50
2023-04-23T08:10:58.598Z,4.20
2023-04-23T08:13:25.111Z,4.05
2023-04-23T08:15:52.087Z,4.38
2023-04-23T08:18:18.625Z,3.92
2023-04-23T08:20:45.452Z,3.60
2023-04-23T08:23:12.008Z,3.33
2023-04-23T08:25:38.628Z,3.55
2023-04-23T08:28:05.335Z,3.50
2023-04-23T08:30:32.103Z,3.05
2023-04-23T08:32:58.775Z,3.10
2023-04-23T08:35:25.483Z,2.75
2023-04-23T08:37:52.028Z,2.90
2023-04-23T08:40:18.858Z,2.75
2023-04-23T08:42:53.545Z,2.88
2023-04-23T08:45:20.290Z,2.83
2023-04-23T08:47:46.885Z,2.13
2023-04-23T08:50:18.486Z,2.30
2023-04-23T08:52:55.852Z,2.60
2023-04-23T08:55:23.768Z,2.28
2023-04-23T08:57:50.862Z,2.95
2023-04-23T09:00:20.482Z,3.55
2023-04-23T09:02:48.730Z,1.90
2023-04-23T09:05:15.644Z,2.30
2023-04-23T09:07:42.982Z,2.40
2023-04-23T09:10:11.570Z,2.53
2023-04-23T09:12:40.886Z,2.58
2023-04-23T09:15:11.138Z,2.45
2023-04-23T09:17:44.178Z,3.00
2023-04-23T09:20:12.099Z,2.67
2023-04-23T09:22:38.802Z,2.28
2023-04-23T09:25:07.709Z,1.73
2023-04-23T09:27:34.601Z,2.78
2023-04-23T09:30:04.854Z,2.10
2023-04-23T09:32:35.687Z,2.15
2023-04-23T09:35:04.485Z,1.95
2023-04-23T09:37:32.152Z,2.00
2023-04-23T09:40:00.413Z,1.73
2023-04-23T09:42:28.296Z,1.63
2023-04-23T09:45:01.119Z,1.85
2023-04-23T09:47:27.760Z,1.40
2023-04-23T09:49:54.438Z,1.73
2023-04-23T09:52:22.570Z,2.00
2023-04-23T09:54:49.194Z,1.50
2023-04-23T09:57:16.046Z,1.83
2023-04-23T09:59:48.882Z,1.65
2023-04-23T10:02:18.904Z,2.00
2023-04-23T10:04:51.916Z,1.35
2023-04-23T10:07:20.447Z,1.80
2023-04-23T10:09:47.989Z,1.48
2023-04-23T10:14:46.520Z,1.98
2023-04-23T10:17:13.730Z,1.95
2023-04-23T10:19:43.475Z,1.77
2023-04-23T10:24:48.581Z,1.70
2023-04-23T10:27:32.856Z,1.75
2023-04-23T10:30:06.437Z,1.77
2023-04-23T10:32:34.080Z,1.65
2023-04-23T10:35:00.908Z,1.63
2023-04-23T10:37:28.939Z,1.70
2023-04-23T10:39:59.312Z,1.83
2023-04-23T10:42:26.747Z,1.67
2023-04-23T10:45:02.723Z,1.55
2023-04-23T10:47:33.967Z,1.52
2023-04-23T10:50:18.978Z,1.90
2023-04-23T10:52:48.783Z,1.17
2023-04-23T10:55:23.895Z,1.30
2023-04-23T10:58:08.208Z,1.20
2023-04-23T11:00:41.201Z,1.67
2023-04-23T11:03:43.413Z,1.60
2023-04-23T11:06:15.808Z,1.67
2023-04-23T11:08:53.588Z,1.40
2023-04-23T11:11:38.311Z,1.42
2023-04-23T11:14:14.168Z,1.80
2023-04-23T11:16:41.002Z,1.33
2023-04-23T11:19:17.288Z,1.80
2023-04-23T11:21:58.885Z,1.42
2023-04-23T11:24:36.528Z,1.30
2023-04-23T11:27:08.661Z,1.58
2023-04-23T11:29:37.117Z,1.58
2023-04-23T11:32:05.437Z,1.23
2023-04-23T11:34:32.991Z,1.40
2023-04-23T11:37:00.673Z,1.58
2023-04-23T11:39:27.443Z,1.80
2023-04-23T11:41:54.840Z,1.30
2023-04-23T11:44:21.927Z,1.13
2023-04-23T11:46:50.718Z,1.23
2023-04-23T11:49:18.704Z,1.83
2023-04-23T11:51:46.239Z,1.00
2023-04-23T11:54:13.677Z,1.10
2023-04-23T11:56:41.576Z,1.40
2023-04-23T11:59:08.602Z,1.00
2023-04-23T12:01:47.353Z,1.10
2023-04-23T12:04:24.815Z,1.98
2023-04-23T12:06:53.543Z,1.55
2023-04-23T12:09:24.785Z,1.42
2023-04-23T12:11:52.008Z,1.00
2023-04-23T12:14:26.838Z,1.20
2023-04-23T12:16:53.816Z,1.33
2023-04-23T12:19:31.341Z,1.23
2023-04-23T12:22:03.538Z,1.25
2023-04-23T12:24:44.588Z,1.70
2023-04-23T12:27:15.702Z,1.58
2023-04-23T12:29:42.847Z,0.95
2023-04-23T12:32:11.302Z,1.08
2023-04-23T12:34:37.914Z,1.13
2023-04-23T12:37:07.115Z,1.38
2023-04-23T12:39:34.944Z,1.35
2023-04-23T12:42:04.933Z,1.00
2023-04-23T12:44:35.788Z,1.40
2023-04-23T12:47:07.490Z,1.38
2023-04-23T12:49:36.422Z,1.20
2023-04-23T12:52:04.568Z,1.58
2023-04-23T12:54:33.553Z,1.52
2023-04-23T12:57:03.717Z,1.33
2023-04-23T12:59:31.524Z,1.65
2023-04-23T13:02:02.039Z,1.35
2023-04-23T13:04:29.861Z,1.40
2023-04-23T13:06:56.993Z,1.20
2023-04-23T13:09:26.873Z,1.33
2023-04-23T13:11:54.287Z,1.75
2023-04-23T13:14:21.523Z,1.38
2023-04-23T13:16:48.958Z,1.17
2023-04-23T13:19:17.205Z,1.08
2023-04-23T13:21:44.697Z,1.13
2023-04-23T13:24:11.304Z,0.70
2023-04-23T13:26:38.139Z,0.93
2023-04-23T13:29:04.946Z,0.77
2023-04-23T13:31:31.689Z,1.40
2023-04-23T13:33:58.729Z,1.17
2023-04-23T13:36:25.939Z,0.93
2023-04-23T13:38:52.783Z,1.00
2023-04-23T13:41:19.369Z,1.10
2023-04-23T13:43:46.194Z,1.10
2023-04-23T13:46:14.102Z,1.00
2023-04-23T13:48:41.468Z,0.77
2023-04-23T13:51:17.917Z,0.50
2023-04-23T13:53:54.569Z,0.98
2023-04-23T13:56:21.085Z,0.75
2023-04-23T13:58:48.805Z,0.50
2023-04-23T14:01:15.676Z,0.98
2023-04-23T14:03:42.428Z,0.73
2023-04-23T14:06:09.060Z,0.77
2023-04-23T14:08:36.726Z,1.10
2023-04-23T14:11:04.427Z,0.85
2023-04-23T14:13:32.099Z,0.68
2023-04-23T14:16:00.107Z,0.77
2023-04-23T14:18:28.777Z,0.63
2023-04-23T14:20:55.375Z,0.93
2023-04-23T14:23:21.843Z,0.80
2023-04-23T14:25:53.117Z,0.70
2023-04-23T14:28:34.516Z,0.80
2023-04-23T14:31:02.075Z,0.90
2023-04-23T14:33:28.653Z,0.60
2023-04-23T14:35:55.427Z,0.80
2023-04-23T14:38:22.056Z,0.70
2023-04-23T14:40:48.653Z,0.60
2023-04-23T14:43:16.278Z,0.63
2023-04-23T14:45:43.322Z,0.80
2023-04-23T14:48:10.445Z,0.57
2023-04-23T14:50:36.998Z,0.70
2023-04-23T14:53:06.928Z,0.77
2023-04-23T14:55:33.985Z,0.60
2023-04-23T14:58:00.717Z,0.90
2023-04-23T15:00:27.825Z,1.05
2023-04-23T15:02:54.726Z,0.55
2023-04-23T15:05:21.630Z,0.60
2023-04-23T15:07:48.265Z,0.70
2023-04-23T15:10:15.044Z,0.80
2023-04-23T15:12:41.652Z,0.80
2023-04-23T15:15:27.720Z,0.80
2023-04-23T15:18:00.394Z,0.70
2023-04-23T15:20:27.078Z,0.80
2023-04-23T15:22:53.644Z,0.88
2023-04-23T15:25:20.223Z,0.80
2023-04-23T15:27:46.829Z,0.70
2023-04-23T15:30:13.532Z,0.60
2023-04-23T15:32:40.160Z,0.80
2023-04-23T15:35:07.153Z,0.70
2023-04-23T15:37:33.701Z,0.82
2023-04-23T15:40:00.286Z,0.90
2023-04-23T15:42:26.901Z,0.80
2023-04-23T15:44:56.223Z,0.50
2023-04-23T15:47:23.248Z,0.68
2023-04-23T15:49:50.333Z,0.90
2023-04-23T15:52:17.938Z,0.70
2023-04-23T15:54:45.436Z,0.60
2023-04-23T15:57:12.163Z,0.60
2023-04-23T15:59:39.081Z,1.98
2023-04-23T16:02:06.183Z,1.25
2023-04-23T16:04:33.180Z,1.00
2023-04-23T16:07:00.054Z,0.82
2023-04-23T16:09:26.613Z,0.70
2023-04-23T16:11:54.486Z,0.82
2023-04-23T16:14:21.070Z,0.80
2023-04-23T16:16:48.048Z,1.30
2023-04-23T16:19:14.651Z,0.90
2023-04-23T16:21:41.377Z,0.80
2023-04-23T16:24:07.967Z,0.40
2023-04-23T16:26:34.791Z,0.47
2023-04-23T16:31:31.082Z,0.60
2023-04-23T16:33:57.682Z,0.52
2023-04-23T16:36:24.549Z,0.80
2023-04-23T16:38:51.308Z,0.90
2023-04-23T16:41:19.642Z,0.80
2023-04-23T16:43:49.618Z,1.17
2023-04-23T16:46:16.418Z,0.90
2023-04-23T16:48:44.904Z,1.05
2023-04-23T16:51:12.058Z,1.25
2023-04-23T16:53:38.944Z,1.00
2023-04-23T16:56:05.965Z,1.30
2023-04-23T16:58:32.920Z,1.13
2023-04-23T17:00:59.482Z,1.05
2023-04-23T17:03:26.806Z,1.00
2023-04-23T17:06:09.343Z,1.13
2023-04-23T17:08:39.320Z,1.40
2023-04-23T17:11:06.913Z,0.88
2023-04-23T17:13:34.693Z,1.15
2023-04-23T17:16:02.273Z,1.48
2023-04-23T17:18:29.050Z,1.30
2023-04-23T17:20:55.750Z,1.60
2023-04-23T17:23:22.333Z,1.50
2023-04-23T17:25:49.278Z,1.63
2023-04-23T17:28:18.435Z,1.50
2023-04-23T17:30:45.876Z,1.35
2023-04-23T17:33:12.783Z,1.85
2023-04-23T17:35:40.168Z,1.63
2023-04-23T17:38:07.224Z,1.20
2023-04-23T17:40:33.863Z,1.20
2023-04-23T17:43:00.504Z,1.73
2023-04-23T17:45:27.195Z,2.30
2023-04-23T17:47:53.920Z,1.83
2023-04-23T17:50:21.299Z,1.77
2023-04-23T17:52:47.988Z,1.67
2023-04-23T17:55:14.688Z,1.83
2023-04-23T17:57:41.326Z,1.83
2023-04-23T18:00:12.146Z,1.20
2023-04-23T18:02:42.255Z,0.60
2023-04-23T18:05:10.284Z,0.10
2023-04-23T18:07:38.264Z,0.10
2023-04-23T18:10:05.778Z,0.45
2023-04-23T18:12:32.876Z,0.20
2023-04-23T18:14:59.526Z,0.17
2023-04-23T18:17:26.375Z,0.25
2023-04-23T18:19:54.126Z,0.20
2023-04-23T18:22:24.508Z,0.10
2023-04-23T18:24:51.237Z,0.80
2023-04-23T18:27:17.835Z,0.25
2023-04-23T18:29:45.248Z,0.10
2023-04-23T18:32:20.992Z,0.20
2023-04-23T18:34:50.857Z,0.20
2023-04-23T18:37:37.778Z,0.30
2023-04-23T18:40:06.091Z,0.10
2023-04-23T18:42:33.163Z,0.40
2023-04-23T18:44:59.849Z,0.25
2023-04-23T18:47:31.939Z,0.20
2023-04-23T18:50:03.227Z,0.10
2023-04-23T18:52:29.913Z,0.10
2023-04-23T18:54:56.483Z,0.10
2023-04-23T18:57:23.099Z,0.20
2023-04-23T18:59:49.683Z,0.17
2023-04-23T19:02:28.179Z,0.38
2023-04-23T19:05:00.814Z,0.10
2023-04-23T19:07:27.444Z,0.20
2023-04-23T19:09:53.973Z,0.10
2023-04-23T19:12:20.491Z,0.30
2023-04-23T19:14:47.056Z,0.10
2023-04-23T19:17:13.556Z,0.45
2023-04-23T19:19:40.364Z,0.30
2023-04-23T19:22:07.017Z,0.10
2023-04-23T19:24:34.380Z,0.22
2023-04-23T19:27:02.027Z,0.10
2023-04-23T19:29:28.555Z,0.20
2023-04-23T19:31:55.189Z,0.17
2023-04-23T19:34:21.793Z,0.15
2023-04-23T19:36:48.338Z,0.20
2023-04-23T19:39:14.903Z,0.20
2023-04-23T19:41:41.430Z,0.10
2023-04-23T19:44:07.953Z,0.20
2023-04-23T19:46:34.534Z,0.13
2023-04-23T19:49:01.109Z,0.10
2023-04-23T19:51:32.726Z,0.20
2023-04-23T19:53:59.285Z,0.20
2023-04-23T19:56:25.862Z,0.20
2023-04-23T19:58:52.575Z,0.10
2023-04-23T20:01:19.263Z,0.32
2023-04-23T20:03:47.916Z,0.10
2023-04-23T20:06:14.692Z,0.20
2023-04-23T20:09:00.026Z,0.20
2023-04-23T20:11:26.760Z,0.10
2023-04-23T20:13:53.947Z,0.10
2023-04-23T20:16:21.424Z,0.20
2023-04-23T20:18:48.259Z,0.20
2023-04-23T20:21:14.837Z,0.20
2023-04-23T20:23:41.397Z,0.10
2023-04-23T20:26:07.970Z,0.20
2023-04-23T20:28:34.552Z,0.10
2023-04-23T20:31:01.088Z,0.10
2023-04-23T20:33:27.725Z,0.20
2023-04-23T20:35:54.284Z,0.20
2023-04-23T20:38:20.789Z,0.17
2023-04-23T20:40:47.654Z,0.10
2023-04-23T20:43:14.385Z,0.28
2023-04-23T20:45:41.373Z,0.20
2023-04-23T20:48:08.318Z,0.10
2023-04-23T20:50:34.952Z,0.13
2023-04-23T20:53:01.525Z,0.20
2023-04-23T20:55:28.196Z,0.10
2023-04-23T20:57:54.848Z,0.20
2023-04-23T21:00:22.283Z,0.10
2023-04-23T21:02:48.908Z,0.15
2023-04-23T21:05:15.827Z,0.20
2023-04-23T21:07:43.180Z,0.20
2023-04-23T21:10:10.582Z,0.20
2023-04-23T21:12:37.476Z,0.20
2023-04-23T21:15:04.570Z,0.20
2023-04-23T21:17:31.118Z,0.20
2023-04-23T21:19:57.708Z,0.20
2023-04-23T21:22:24.246Z,0.20
2023-04-23T21:24:50.866Z,0.10
2023-04-23T21:27:21.538Z,0.20
2023-04-23T21:29:48.588Z,0.17
2023-04-23T21:32:15.815Z,0.20
2023-04-23T21:34:42.535Z,0.20
2023-04-23T21:37:09.160Z,0.20
2023-04-23T21:39:35.757Z,0.20
2023-04-23T21:42:02.315Z,0.10
2023-04-23T21:44:31.032Z,0.20
2023-04-23T21:46:57.624Z,0.20
2023-04-23T21:49:24.237Z,0.20
2023-04-23T21:51:54.413Z,0.20
2023-04-23T21:54:21.568Z,0.20
2023-04-23T21:56:48.097Z,0.30
2023-04-23T21:59:14.775Z,0.10
2023-04-23T22:01:41.486Z,0.20
2023-04-23T22:04:08.554Z,0.20
2023-04-23T22:06:35.273Z,0.38
2023-04-23T22:09:01.977Z,0.30
2023-04-23T22:11:29.183Z,0.30
2023-04-23T22:13:55.733Z,0.25
2023-04-23T22:16:28.865Z,0.47
2023-04-23T22:18:59.010Z,0.30
2023-04-23T22:21:25.651Z,0.40
2023-04-23T22:23:52.329Z,0.50
2023-04-23T22:26:18.994Z,0.40
2023-04-23T22:28:45.672Z,0.50
2023-04-23T22:31:12.258Z,0.70
2023-04-23T22:33:39.331Z,0.57
2023-04-23T22:36:06.171Z,0.52
2023-04-23T22:38:32.905Z,0.50
2023-04-23T22:40:59.628Z,0.50
2023-04-23T22:43:26.183Z,0.70
2023-04-23T22:45:52.821Z,0.30
2023-04-23T22:48:19.420Z,0.50
2023-04-23T22:50:45.953Z,0.40
2023-04-23T22:53:12.484Z,0.40
2023-04-23T22:55:39.636Z,0.50
2023-04-23T22:58:06.173Z,0.43
2023-04-23T23:00:32.769Z,0.45
2023-04-23T23:02:59.355Z,0.75
2023-04-23T23:05:26.569Z,0.80
2023-04-23T23:07:54.110Z,0.60
2023-04-23T23:10:22.729Z,0.47
2023-04-23T23:12:49.492Z,0.68
2023-04-23T23:15:16.219Z,0.60
2023-04-23T23:17:42.727Z,0.55
2023-04-23T23:20:09.933Z,0.60
2023-04-23T23:22:37.349Z,0.60
2023-04-23T23:25:06.430Z,0.68
2023-04-23T23:27:32.906Z,0.80
2023-04-23T23:29:59.562Z,0.60
2023-04-23T23:32:26.186Z,0.65
2023-04-23T23:34:52.796Z,0.50
2023-04-23T23:37:19.303Z,0.80
2023-04-23T23:39:45.885Z,0.52
2023-04-23T23:42:12.405Z,0.55
2023-04-23T23:44:39.042Z,0.50
2023-04-23T23:47:06.334Z,0.52
2023-04-23T23:49:32.976Z,0.47
2023-04-23T23:51:59.658Z,0.60
2023-04-23T23:54:26.217Z,0.50
2023-04-23T23:56:52.711Z,0.50
2023-04-23T23:59:19.332Z,0.32
